sensor_id;sensor_type;location;lat;lon;timestamp;pressure;altitude;pressure_sealevel;temperature;humidity
13124;BME280;6627;50.920;12.050;2023-07-31T00:01:08;98756.16;;;29.12;35.51
13124;BME280;6627;50.920;12.050;2023-07-31T00:03:37;98777.31;;;29.33;34.91
13124;BME280;6627;50.920;12.050;2023-07-31T00:06:04;98761.25;;;29.61;34.50
13124;BME280;6627;50.920;12.050;2023-07-31T00:08:32;98653.66;;;28.97;34.46
13124;BME280;6627;50.920;12.050;2023-07-31T00:11:00;98794.97;;;29.70;34.46
13124;BME280;6627;50.920;12.050;2023-07-31T00:13:29;98753.28;;;30.19;32.99
13124;BME280;6627;50.920;12.050;2023-07-31T00:15:56;98755.94;;;30.26;32.82
13124;BME280;6627;50.920;12.050;2023-07-31T00:18:24;98614.25;;;28.71;35.02
13124;BME280;6627;50.920;12.050;2023-07-31T00:20:52;98803.84;;;30.05;34.39
13124;BME280;6627;50.920;12.050;2023-07-31T00:23:19;98683.34;;;29.07;34.79
13124;BME280;6627;50.920;12.050;2023-07-31T00:25:47;98708.16;;;29.64;33.97
13124;BME280;6627;50.920;12.050;2023-07-31T00:28:15;98699.94;;;28.90;35.59
13124;BME280;6627;50.920;12.050;2023-07-31T00:30:44;98662.56;;;28.88;35.12
13124;BME280;6627;50.920;12.050;2023-07-31T00:33:11;98730.50;;;30.01;34.03
13124;BME280;6627;50.920;12.050;2023-07-31T00:35:39;98672.91;;;29.51;33.92
13124;BME280;6627;50.920;12.050;2023-07-31T00:38:07;98590.53;;;28.16;35.72
13124;BME280;6627;50.920;12.050;2023-07-31T00:40:35;98723.06;;;28.91;35.88
13124;BME280;6627;50.920;12.050;2023-07-31T00:43:04;98709.91;;;29.55;34.23
13124;BME280;6627;50.920;12.050;2023-07-31T00:45:32;98679.56;;;29.17;35.09
13124;BME280;6627;50.920;12.050;2023-07-31T00:48:02;98618.53;;;28.56;34.92
13124;BME280;6627;50.920;12.050;2023-07-31T00:50:30;98646.59;;;28.88;34.77
13124;BME280;6627;50.920;12.050;2023-07-31T00:52:58;98605.94;;;28.91;34.24
13124;BME280;6627;50.920;12.050;2023-07-31T00:55:26;98566.53;;;28.22;34.90
13124;BME280;6627;50.920;12.050;2023-07-31T00:57:54;98569.47;;;28.38;34.55
13124;BME280;6627;50.920;12.050;2023-07-31T01:00:23;98727.03;;;29.57;34.20
13124;BME280;6627;50.920;12.050;2023-07-31T01:02:51;98626.72;;;28.86;34.15
13124;BME280;6627;50.920;12.050;2023-07-31T01:05:29;98673.56;;;29.38;33.93
13124;BME280;6627;50.920;12.050;2023-07-31T01:08:12;98667.66;;;29.13;34.51
13124;BME280;6627;50.920;12.050;2023-07-31T01:10:48;98700.31;;;29.16;34.89
13124;BME280;6627;50.920;12.050;2023-07-31T01:13:17;98615.00;;;28.75;34.68
13124;BME280;6627;50.920;12.050;2023-07-31T01:15:44;98651.78;;;28.66;35.11
13124;BME280;6627;50.920;12.050;2023-07-31T01:18:12;98611.09;;;28.22;35.77
13124;BME280;6627;50.920;12.050;2023-07-31T01:20:42;98658.19;;;28.13;36.71
13124;BME280;6627;50.920;12.050;2023-07-31T01:23:51;98690.59;;;28.00;37.39
13124;BME280;6627;50.920;12.050;2023-07-31T01:26:30;98724.13;;;28.20;37.75
13124;BME280;6627;50.920;12.050;2023-07-31T01:29:03;98681.97;;;27.60;38.48
13124;BME280;6627;50.920;12.050;2023-07-31T01:31:34;98671.59;;;27.30;39.03
13124;BME280;6627;50.920;12.050;2023-07-31T01:34:04;98880.53;;;29.33;37.34
13124;BME280;6627;50.920;12.050;2023-07-31T01:36:33;98693.16;;;27.53;38.96
13124;BME280;6627;50.920;12.050;2023-07-31T01:39:02;98798.56;;;28.50;38.80
13124;BME280;6627;50.920;12.050;2023-07-31T01:41:31;98795.75;;;27.51;40.84
13124;BME280;6627;50.920;12.050;2023-07-31T01:43:59;98815.53;;;28.28;39.39
13124;BME280;6627;50.920;12.050;2023-07-31T01:46:26;98855.00;;;28.57;38.98
13124;BME280;6627;50.920;12.050;2023-07-31T01:48:54;98710.72;;;28.11;38.81
13124;BME280;6627;50.920;12.050;2023-07-31T01:51:22;98903.59;;;29.14;38.80
13124;BME280;6627;50.920;12.050;2023-07-31T01:53:49;98811.03;;;29.19;38.12
13124;BME280;6627;50.920;12.050;2023-07-31T01:56:17;98760.81;;;27.84;40.15
13124;BME280;6627;50.920;12.050;2023-07-31T01:58:46;98839.34;;;28.63;39.51
13124;BME280;6627;50.920;12.050;2023-07-31T02:01:14;98729.84;;;28.09;39.72
13124;BME280;6627;50.920;12.050;2023-07-31T02:03:41;98775.69;;;28.31;39.62
13124;BME280;6627;50.920;12.050;2023-07-31T02:06:09;98740.69;;;27.73;40.25
13124;BME280;6627;50.920;12.050;2023-07-31T02:08:37;98695.84;;;26.32;42.44
13124;BME280;6627;50.920;12.050;2023-07-31T02:11:05;98852.19;;;27.92;41.70
13124;BME280;6627;50.920;12.050;2023-07-31T02:13:33;98778.47;;;27.32;41.43
13124;BME280;6627;50.920;12.050;2023-07-31T02:16:03;98697.09;;;25.36;44.54
13124;BME280;6627;50.920;12.050;2023-07-31T02:18:31;98816.78;;;27.07;42.54
13124;BME280;6627;50.920;12.050;2023-07-31T02:20:58;98780.00;;;26.92;42.56
13124;BME280;6627;50.920;12.050;2023-07-31T02:23:26;98852.78;;;27.73;41.81
13124;BME280;6627;50.920;12.050;2023-07-31T02:25:54;98763.66;;;26.46;43.14
13124;BME280;6627;50.920;12.050;2023-07-31T02:28:22;98765.75;;;26.20;43.72
13124;BME280;6627;50.920;12.050;2023-07-31T02:30:50;98796.78;;;25.97;44.62
13124;BME280;6627;50.920;12.050;2023-07-31T02:33:20;98831.38;;;26.70;43.44
13124;BME280;6627;50.920;12.050;2023-07-31T02:35:48;98772.13;;;26.17;43.88
13124;BME280;6627;50.920;12.050;2023-07-31T02:38:15;98780.31;;;26.46;43.24
13124;BME280;6627;50.920;12.050;2023-07-31T02:40:43;98800.31;;;26.82;43.08
13124;BME280;6627;50.920;12.050;2023-07-31T02:43:11;98837.38;;;27.20;42.89
13124;BME280;6627;50.920;12.050;2023-07-31T02:45:39;98756.97;;;26.32;43.47
13124;BME280;6627;50.920;12.050;2023-07-31T02:48:07;98877.78;;;26.69;44.45
13124;BME280;6627;50.920;12.050;2023-07-31T02:50:35;98812.94;;;26.20;44.38
13124;BME280;6627;50.920;12.050;2023-07-31T02:53:03;98877.94;;;27.14;43.44
13124;BME280;6627;50.920;12.050;2023-07-31T02:55:31;98832.63;;;26.58;44.30
13124;BME280;6627;50.920;12.050;2023-07-31T02:57:58;98846.41;;;26.72;43.97
13124;BME280;6627;50.920;12.050;2023-07-31T03:00:26;98885.16;;;27.01;43.96
13124;BME280;6627;50.920;12.050;2023-07-31T03:02:54;98798.34;;;26.02;44.90
13124;BME280;6627;50.920;12.050;2023-07-31T03:05:22;98908.72;;;27.41;43.52
13124;BME280;6627;50.920;12.050;2023-07-31T03:07:51;98815.97;;;25.31;46.20
13124;BME280;6627;50.920;12.050;2023-07-31T03:10:18;98758.53;;;24.96;47.14
13124;BME280;6627;50.920;12.050;2023-07-31T03:12:47;98836.50;;;25.69;46.87
13124;BME280;6627;50.920;12.050;2023-07-31T03:15:15;98822.28;;;25.46;46.78
13124;BME280;6627;50.920;12.050;2023-07-31T03:17:43;98837.28;;;25.80;46.68
13124;BME280;6627;50.920;12.050;2023-07-31T03:20:11;98872.09;;;26.06;46.76
13124;BME280;6627;50.920;12.050;2023-07-31T03:22:39;98830.56;;;24.81;48.39
13124;BME280;6627;50.920;12.050;2023-07-31T03:25:09;98871.81;;;25.22;48.73
13124;BME280;6627;50.920;12.050;2023-07-31T03:27:36;98879.22;;;26.11;46.69
13124;BME280;6627;50.920;12.050;2023-07-31T03:30:05;98860.16;;;26.20;46.25
13124;BME280;6627;50.920;12.050;2023-07-31T03:32:33;98778.75;;;24.92;47.12
13124;BME280;6627;50.920;12.050;2023-07-31T03:35:01;98818.28;;;24.68;48.56
13124;BME280;6627;50.920;12.050;2023-07-31T03:37:29;98909.84;;;25.82;47.45
13124;BME280;6627;50.920;12.050;2023-07-31T03:39:56;98888.44;;;25.44;47.88
13124;BME280;6627;50.920;12.050;2023-07-31T03:42:25;98912.56;;;26.04;47.31
13124;BME280;6627;50.920;12.050;2023-07-31T03:44:54;98865.47;;;25.36;48.26
13124;BME280;6627;50.920;12.050;2023-07-31T03:47:21;98921.88;;;26.67;46.28
13124;BME280;6627;50.920;12.050;2023-07-31T03:49:49;98885.75;;;26.71;45.72
13124;BME280;6627;50.920;12.050;2023-07-31T03:52:17;98867.38;;;26.03;46.31
13124;BME280;6627;50.920;12.050;2023-07-31T03:54:45;98930.53;;;27.95;44.21
13124;BME280;6627;50.920;12.050;2023-07-31T03:57:12;98841.25;;;25.83;46.53
13124;BME280;6627;50.920;12.050;2023-07-31T03:59:41;98872.97;;;25.78;47.10
13124;BME280;6627;50.920;12.050;2023-07-31T04:02:09;98921.13;;;26.56;46.46
13124;BME280;6627;50.920;12.050;2023-07-31T04:04:37;98890.97;;;26.58;45.79
13124;BME280;6627;50.920;12.050;2023-07-31T04:07:04;99016.66;;;28.54;43.43
13124;BME280;6627;50.920;12.050;2023-07-31T04:09:32;98841.66;;;25.81;46.79
13124;BME280;6627;50.920;12.050;2023-07-31T04:12:00;98897.00;;;26.31;46.59
13124;BME280;6627;50.920;12.050;2023-07-31T04:14:29;98815.56;;;25.04;47.92
13124;BME280;6627;50.920;12.050;2023-07-31T04:16:58;98902.31;;;25.44;48.65
13124;BME280;6627;50.920;12.050;2023-07-31T04:19:26;98894.34;;;25.71;48.08
13124;BME280;6627;50.920;12.050;2023-07-31T04:21:53;98834.78;;;24.32;50.01
13124;BME280;6627;50.920;12.050;2023-07-31T04:24:21;98937.94;;;26.09;48.23
13124;BME280;6627;50.920;12.050;2023-07-31T04:26:50;98909.44;;;25.59;49.21
13124;BME280;6627;50.920;12.050;2023-07-31T04:29:18;98842.00;;;24.55;50.37
13124;BME280;6627;50.920;12.050;2023-07-31T04:31:47;98869.44;;;25.38;48.97
13124;BME280;6627;50.920;12.050;2023-07-31T04:34:16;98896.75;;;25.72;48.90
13124;BME280;6627;50.920;12.050;2023-07-31T04:36:44;98913.78;;;26.94;46.49
13124;BME280;6627;50.920;12.050;2023-07-31T04:39:11;98836.56;;;25.33;48.41
13124;BME280;6627;50.920;12.050;2023-07-31T04:41:39;98852.75;;;25.81;47.13
13124;BME280;6627;50.920;12.050;2023-07-31T04:44:07;98928.00;;;27.07;46.26
13124;BME280;6627;50.920;12.050;2023-07-31T04:46:35;98813.50;;;25.76;46.43
13124;BME280;6627;50.920;12.050;2023-07-31T04:49:03;98862.59;;;26.04;47.08
13124;BME280;6627;50.920;12.050;2023-07-31T04:51:32;98840.19;;;26.54;45.50
13124;BME280;6627;50.920;12.050;2023-07-31T04:54:00;98849.09;;;26.13;46.58
13124;BME280;6627;50.920;12.050;2023-07-31T04:56:28;98926.56;;;26.84;46.33
13124;BME280;6627;50.920;12.050;2023-07-31T04:58:55;98923.75;;;27.51;44.56
13124;BME280;6627;50.920;12.050;2023-07-31T05:01:23;98906.00;;;26.67;45.80
13124;BME280;6627;50.920;12.050;2023-07-31T05:03:51;98807.16;;;25.79;46.09
13124;BME280;6627;50.920;12.050;2023-07-31T05:06:18;98872.97;;;25.64;47.85
13124;BME280;6627;50.920;12.050;2023-07-31T05:08:48;98938.13;;;27.42;44.91
13124;BME280;6627;50.920;12.050;2023-07-31T05:11:16;98918.69;;;26.65;46.06
13124;BME280;6627;50.920;12.050;2023-07-31T05:13:44;98889.75;;;27.70;43.58
13124;BME280;6627;50.920;12.050;2023-07-31T05:16:11;98852.25;;;26.11;46.37
13124;BME280;6627;50.920;12.050;2023-07-31T05:18:39;98915.56;;;27.78;43.86
13124;BME280;6627;50.920;12.050;2023-07-31T05:21:07;98896.03;;;27.36;44.36
13124;BME280;6627;50.920;12.050;2023-07-31T05:23:35;98911.38;;;28.00;43.67
13124;BME280;6627;50.920;12.050;2023-07-31T05:26:07;98837.94;;;27.46;43.42
13124;BME280;6627;50.920;12.050;2023-07-31T05:28:36;98844.78;;;26.78;45.16
13124;BME280;6627;50.920;12.050;2023-07-31T05:31:05;98901.44;;;27.02;45.25
13124;BME280;6627;50.920;12.050;2023-07-31T05:33:33;98911.34;;;27.59;44.14
13124;BME280;6627;50.920;12.050;2023-07-31T05:36:01;98949.97;;;28.39;43.67
13124;BME280;6627;50.920;12.050;2023-07-31T05:38:28;98887.94;;;27.53;43.54
13124;BME280;6627;50.920;12.050;2023-07-31T05:40:56;98912.00;;;28.15;42.76
13124;BME280;6627;50.920;12.050;2023-07-31T05:43:25;98921.56;;;28.14;43.20
13124;BME280;6627;50.920;12.050;2023-07-31T05:45:53;98805.97;;;26.64;44.40
13124;BME280;6627;50.920;12.050;2023-07-31T05:48:21;98919.16;;;27.26;44.75
13124;BME280;6627;50.920;12.050;2023-07-31T05:50:48;98905.38;;;27.57;44.13
13124;BME280;6627;50.920;12.050;2023-07-31T05:53:16;98888.84;;;27.42;43.99
13124;BME280;6627;50.920;12.050;2023-07-31T05:55:43;98871.19;;;27.60;43.49
13124;BME280;6627;50.920;12.050;2023-07-31T05:58:11;98900.88;;;27.25;44.67
13124;BME280;6627;50.920;12.050;2023-07-31T06:00:40;98854.94;;;27.55;43.63
13124;BME280;6627;50.920;12.050;2023-07-31T06:03:08;98927.25;;;28.03;44.15
13124;BME280;6627;50.920;12.050;2023-07-31T06:05:36;98909.06;;;28.29;42.75
13124;BME280;6627;50.920;12.050;2023-07-31T06:08:04;98946.50;;;28.62;43.15
13124;BME280;6627;50.920;12.050;2023-07-31T06:10:32;98813.00;;;27.76;42.47
13124;BME280;6627;50.920;12.050;2023-07-31T06:13:01;98913.63;;;29.08;41.75
13124;BME280;6627;50.920;12.050;2023-07-31T06:15:29;98848.78;;;28.12;42.57
13124;BME280;6627;50.920;12.050;2023-07-31T06:17:58;98931.84;;;28.55;43.18
13124;BME280;6627;50.920;12.050;2023-07-31T06:20:28;98875.06;;;29.03;41.15
13124;BME280;6627;50.920;12.050;2023-07-31T06:22:56;98895.63;;;28.55;42.33
13124;BME280;6627;50.920;12.050;2023-07-31T06:25:24;98949.75;;;29.19;42.33
13124;BME280;6627;50.920;12.050;2023-07-31T06:27:52;98869.97;;;28.67;41.58
13124;BME280;6627;50.920;12.050;2023-07-31T06:30:20;98931.66;;;29.54;41.00
13124;BME280;6627;50.920;12.050;2023-07-31T06:32:47;98909.44;;;29.70;40.10
13124;BME280;6627;50.920;12.050;2023-07-31T06:35:17;98844.19;;;28.86;40.72
13124;BME280;6627;50.920;12.050;2023-07-31T06:37:44;98803.19;;;27.23;43.64
13124;BME280;6627;50.920;12.050;2023-07-31T06:40:12;98882.44;;;27.46;44.41
13124;BME280;6627;50.920;12.050;2023-07-31T06:42:40;98806.00;;;27.20;43.16
13124;BME280;6627;50.920;12.050;2023-07-31T06:45:08;98913.28;;;28.45;43.12
13124;BME280;6627;50.920;12.050;2023-07-31T06:47:37;98903.72;;;29.57;40.58
13124;BME280;6627;50.920;12.050;2023-07-31T06:50:05;98857.00;;;29.34;40.62
13124;BME280;6627;50.920;12.050;2023-07-31T06:52:34;98795.16;;;28.38;41.44
13124;BME280;6627;50.920;12.050;2023-07-31T06:55:03;98922.50;;;29.77;40.43
13124;BME280;6627;50.920;12.050;2023-07-31T06:57:31;98889.44;;;29.01;41.60
13124;BME280;6627;50.920;12.050;2023-07-31T06:59:59;98947.63;;;29.26;41.94
13124;BME280;6627;50.920;12.050;2023-07-31T07:02:27;99003.69;;;29.89;42.26
13124;BME280;6627;50.920;12.050;2023-07-31T07:04:54;98881.13;;;30.15;39.00
13124;BME280;6627;50.920;12.050;2023-07-31T07:07:23;98821.09;;;28.28;41.27
13124;BME280;6627;50.920;12.050;2023-07-31T07:09:52;98908.72;;;29.66;40.27
13124;BME280;6627;50.920;12.050;2023-07-31T07:12:20;98853.59;;;29.70;39.31
13124;BME280;6627;50.920;12.050;2023-07-31T07:14:47;98916.72;;;29.40;40.58
13124;BME280;6627;50.920;12.050;2023-07-31T07:17:15;98852.63;;;29.10;40.55
13124;BME280;6627;50.920;12.050;2023-07-31T07:19:43;98878.34;;;29.21;40.39
13124;BME280;6627;50.920;12.050;2023-07-31T07:22:12;98840.25;;;28.26;41.83
13124;BME280;6627;50.920;12.050;2023-07-31T07:24:40;98805.13;;;28.02;41.49
13124;BME280;6627;50.920;12.050;2023-07-31T07:27:09;98929.72;;;29.74;40.12
13124;BME280;6627;50.920;12.050;2023-07-31T07:29:38;98852.53;;;29.64;39.55
13124;BME280;6627;50.920;12.050;2023-07-31T07:32:06;98876.66;;;29.51;39.87
13124;BME280;6627;50.920;12.050;2023-07-31T07:34:34;98889.59;;;29.41;40.28
13124;BME280;6627;50.920;12.050;2023-07-31T07:37:02;98858.00;;;28.70;40.95
13124;BME280;6627;50.920;12.050;2023-07-31T07:39:30;98806.13;;;27.84;41.82
13124;BME280;6627;50.920;12.050;2023-07-31T07:41:58;98913.31;;;29.02;41.11
13124;BME280;6627;50.920;12.050;2023-07-31T07:44:27;98783.50;;;28.13;41.15
13124;BME280;6627;50.920;12.050;2023-07-31T07:46:54;98835.22;;;28.48;41.12
13124;BME280;6627;50.920;12.050;2023-07-31T07:49:22;98828.19;;;28.36;41.09
13124;BME280;6627;50.920;12.050;2023-07-31T07:51:50;98800.34;;;28.36;41.09
13124;BME280;6627;50.920;12.050;2023-07-31T07:54:18;98860.16;;;29.36;40.20
13124;BME280;6627;50.920;12.050;2023-07-31T07:56:46;98868.63;;;29.06;40.52
13124;BME280;6627;50.920;12.050;2023-07-31T07:59:14;98841.03;;;27.92;41.72
13124;BME280;6627;50.920;12.050;2023-07-31T08:01:43;98815.53;;;28.59;40.80
13124;BME280;6627;50.920;12.050;2023-07-31T08:04:11;98868.28;;;29.74;39.17
13124;BME280;6627;50.920;12.050;2023-07-31T08:06:38;98881.63;;;29.39;40.04
13124;BME280;6627;50.920;12.050;2023-07-31T08:09:06;98942.38;;;30.26;38.93
13124;BME280;6627;50.920;12.050;2023-07-31T08:11:35;98908.91;;;30.42;38.50
13124;BME280;6627;50.920;12.050;2023-07-31T08:14:03;98832.81;;;29.95;38.64
13124;BME280;6627;50.920;12.050;2023-07-31T08:16:31;98815.56;;;29.80;38.53
13124;BME280;6627;50.920;12.050;2023-07-31T08:19:00;98930.00;;;30.47;39.02
13124;BME280;6627;50.920;12.050;2023-07-31T08:21:27;98818.53;;;29.69;38.91
13124;BME280;6627;50.920;12.050;2023-07-31T08:23:56;98845.59;;;29.02;40.59
13124;BME280;6627;50.920;12.050;2023-07-31T08:26:24;98825.53;;;28.56;41.24
13124;BME280;6627;50.920;12.050;2023-07-31T08:28:51;98905.88;;;29.70;40.30
13124;BME280;6627;50.920;12.050;2023-07-31T08:31:19;98773.63;;;28.66;40.72
13124;BME280;6627;50.920;12.050;2023-07-31T08:33:47;98893.75;;;29.29;41.48
13124;BME280;6627;50.920;12.050;2023-07-31T08:36:16;98895.84;;;29.49;40.55
13124;BME280;6627;50.920;12.050;2023-07-31T08:38:46;98870.94;;;28.84;42.03
13124;BME280;6627;50.920;12.050;2023-07-31T08:41:13;98844.66;;;28.81;41.56
13124;BME280;6627;50.920;12.050;2023-07-31T08:43:43;98883.22;;;29.40;41.01
13124;BME280;6627;50.920;12.050;2023-07-31T08:46:12;98814.91;;;28.75;41.11
13124;BME280;6627;50.920;12.050;2023-07-31T08:48:41;98793.81;;;27.85;42.49
13124;BME280;6627;50.920;12.050;2023-07-31T08:51:10;98865.03;;;29.32;40.75
13124;BME280;6627;50.920;12.050;2023-07-31T08:53:39;98846.97;;;28.86;41.18
13124;BME280;6627;50.920;12.050;2023-07-31T08:56:07;98855.91;;;29.05;40.92
13124;BME280;6627;50.920;12.050;2023-07-31T08:58:35;98900.59;;;30.38;38.91
13124;BME280;6627;50.920;12.050;2023-07-31T09:01:04;98804.72;;;29.15;40.45
13124;BME280;6627;50.920;12.050;2023-07-31T09:03:34;98898.16;;;30.40;38.70
13124;BME280;6627;50.920;12.050;2023-07-31T09:06:03;98784.47;;;28.60;40.98
13124;BME280;6627;50.920;12.050;2023-07-31T09:08:33;98883.00;;;29.98;39.49
13124;BME280;6627;50.920;12.050;2023-07-31T09:11:03;98776.94;;;29.08;39.95
13124;BME280;6627;50.920;12.050;2023-07-31T09:13:32;98861.25;;;29.19;40.83
13124;BME280;6627;50.920;12.050;2023-07-31T09:16:00;98835.00;;;28.62;41.16
13124;BME280;6627;50.920;12.050;2023-07-31T09:18:27;98915.03;;;29.94;40.04
13124;BME280;6627;50.920;12.050;2023-07-31T09:21:02;98775.63;;;29.16;39.59
13124;BME280;6627;50.920;12.050;2023-07-31T09:23:46;98785.31;;;29.08;39.75
13124;BME280;6627;50.920;12.050;2023-07-31T09:26:29;98815.69;;;29.02;40.12
13124;BME280;6627;50.920;12.050;2023-07-31T09:28:57;98858.81;;;30.11;38.75
13124;BME280;6627;50.920;12.050;2023-07-31T09:31:42;98822.88;;;29.70;39.11
13124;BME280;6627;50.920;12.050;2023-07-31T09:34:10;98846.31;;;29.53;39.88
13124;BME280;6627;50.920;12.050;2023-07-31T09:36:41;98815.75;;;28.72;41.38
13124;BME280;6627;50.920;12.050;2023-07-31T09:39:10;98863.69;;;29.40;40.91
13124;BME280;6627;50.920;12.050;2023-07-31T09:41:40;98855.91;;;29.05;41.94
13124;BME280;6627;50.920;12.050;2023-07-31T09:44:08;98911.13;;;29.87;41.46
13124;BME280;6627;50.920;12.050;2023-07-31T09:46:35;98925.59;;;29.82;41.75
13124;BME280;6627;50.920;12.050;2023-07-31T09:49:07;98902.66;;;29.71;41.79
13124;BME280;6627;50.920;12.050;2023-07-31T09:51:37;98912.09;;;30.01;41.24
13124;BME280;6627;50.920;12.050;2023-07-31T09:54:12;98914.38;;;30.06;41.42
13124;BME280;6627;50.920;12.050;2023-07-31T09:56:44;98865.50;;;29.74;40.82
13124;BME280;6627;50.920;12.050;2023-07-31T09:59:14;98895.25;;;29.84;41.26
13124;BME280;6627;50.920;12.050;2023-07-31T10:01:44;98875.25;;;30.29;40.06
13124;BME280;6627;50.920;12.050;2023-07-31T10:04:13;98813.69;;;29.50;40.58
13124;BME280;6627;50.920;12.050;2023-07-31T10:06:42;98952.25;;;30.70;40.35
13124;BME280;6627;50.920;12.050;2023-07-31T10:09:13;98826.72;;;29.80;40.29
13124;BME280;6627;50.920;12.050;2023-07-31T10:11:47;98871.09;;;30.37;39.98
13124;BME280;6627;50.920;12.050;2023-07-31T10:14:19;98929.97;;;30.86;40.08
13124;BME280;6627;50.920;12.050;2023-07-31T10:16:47;98819.53;;;29.35;41.31
13124;BME280;6627;50.920;12.050;2023-07-31T10:19:15;98894.28;;;30.34;40.35
13124;BME280;6627;50.920;12.050;2023-07-31T10:21:44;98858.06;;;29.68;40.92
13124;BME280;6627;50.920;12.050;2023-07-31T10:24:13;98855.16;;;30.34;39.44
13124;BME280;6627;50.920;12.050;2023-07-31T10:26:47;98728.69;;;28.87;40.12
13124;BME280;6627;50.920;12.050;2023-07-31T10:29:16;98839.31;;;30.28;38.97
13124;BME280;6627;50.920;12.050;2023-07-31T10:31:45;98896.25;;;31.26;38.18
13124;BME280;6627;50.920;12.050;2023-07-31T10:34:14;98749.72;;;29.99;38.99
13124;BME280;6627;50.920;12.050;2023-07-31T10:36:43;98738.34;;;29.89;38.84
13124;BME280;6627;50.920;12.050;2023-07-31T10:39:36;98877.75;;;31.32;37.67
13124;BME280;6627;50.920;12.050;2023-07-31T10:42:13;98814.00;;;30.55;38.02
13124;BME280;6627;50.920;12.050;2023-07-31T10:44:46;98822.28;;;31.44;36.69
13124;BME280;6627;50.920;12.050;2023-07-31T10:47:15;98774.16;;;31.16;36.59
13124;BME280;6627;50.920;12.050;2023-07-31T10:49:45;98792.81;;;31.06;36.90
13124;BME280;6627;50.920;12.050;2023-07-31T10:52:16;98701.28;;;30.58;36.37
13124;BME280;6627;50.920;12.050;2023-07-31T10:54:49;98825.56;;;31.55;36.88
13124;BME280;6627;50.920;12.050;2023-07-31T10:57:22;98787.88;;;31.72;35.80
13124;BME280;6627;50.920;12.050;2023-07-31T10:59:51;98707.94;;;30.80;36.72
13124;BME280;6627;50.920;12.050;2023-07-31T11:02:39;98714.44;;;30.77;36.38
13124;BME280;6627;50.920;12.050;2023-07-31T11:05:07;98832.44;;;31.83;36.23
13124;BME280;6627;50.920;12.050;2023-07-31T11:07:48;98822.13;;;32.22;35.18
13124;BME280;6627;50.920;12.050;2023-07-31T11:10:17;98686.94;;;31.34;35.14
13124;BME280;6627;50.920;12.050;2023-07-31T11:12:47;98621.59;;;30.82;35.38
13124;BME280;6627;50.920;12.050;2023-07-31T11:15:15;98773.22;;;32.23;35.09
13124;BME280;6627;50.920;12.050;2023-07-31T11:17:43;98722.34;;;31.70;35.45
13124;BME280;6627;50.920;12.050;2023-07-31T11:20:11;98762.47;;;32.34;34.81
13124;BME280;6627;50.920;12.050;2023-07-31T11:22:39;98626.94;;;31.06;35.12
13124;BME280;6627;50.920;12.050;2023-07-31T11:25:09;98703.69;;;32.05;34.72
13124;BME280;6627;50.920;12.050;2023-07-31T11:27:39;98672.75;;;31.41;34.94
13124;BME280;6627;50.920;12.050;2023-07-31T11:30:11;98712.91;;;31.93;34.77
13124;BME280;6627;50.920;12.050;2023-07-31T11:32:39;98660.75;;;31.11;35.27
13124;BME280;6627;50.920;12.050;2023-07-31T11:35:07;98626.41;;;30.82;35.63
13124;BME280;6627;50.920;12.050;2023-07-31T11:37:40;98679.50;;;31.85;34.60
13124;BME280;6627;50.920;12.050;2023-07-31T11:40:09;98609.16;;;30.38;36.37
13124;BME280;6627;50.920;12.050;2023-07-31T11:42:37;98659.91;;;31.44;35.58
13124;BME280;6627;50.920;12.050;2023-07-31T11:45:06;98674.50;;;31.64;34.80
13124;BME280;6627;50.920;12.050;2023-07-31T11:47:37;98641.72;;;30.77;36.28
13124;BME280;6627;50.920;12.050;2023-07-31T11:50:09;98610.59;;;30.75;35.74
13124;BME280;6627;50.920;12.050;2023-07-31T11:52:40;98605.25;;;31.10;35.17
13124;BME280;6627;50.920;12.050;2023-07-31T11:55:14;98627.19;;;31.40;34.89
13124;BME280;6627;50.920;12.050;2023-07-31T11:57:44;98653.03;;;31.86;34.00
13124;BME280;6627;50.920;12.050;2023-07-31T12:00:14;98589.09;;;30.72;35.12
13124;BME280;6627;50.920;12.050;2023-07-31T12:02:43;98667.75;;;31.49;35.32
13124;BME280;6627;50.920;12.050;2023-07-31T12:05:12;98526.28;;;30.89;34.54
13124;BME280;6627;50.920;12.050;2023-07-31T12:07:48;98560.56;;;30.48;36.11
13124;BME280;6627;50.920;12.050;2023-07-31T12:10:29;98567.78;;;30.78;35.37
13124;BME280;6627;50.920;12.050;2023-07-31T12:13:02;98577.03;;;30.75;35.52
13124;BME280;6627;50.920;12.050;2023-07-31T12:15:36;98570.53;;;31.07;35.15
13124;BME280;6627;50.920;12.050;2023-07-31T12:18:08;98656.44;;;31.23;35.76
13124;BME280;6627;50.920;12.050;2023-07-31T12:20:41;98557.84;;;30.45;36.29
13124;BME280;6627;50.920;12.050;2023-07-31T12:23:15;98605.28;;;30.94;35.95
13124;BME280;6627;50.920;12.050;2023-07-31T12:25:43;98608.00;;;30.52;36.37
13124;BME280;6627;50.920;12.050;2023-07-31T12:28:11;98517.84;;;30.48;36.22
13124;BME280;6627;50.920;12.050;2023-07-31T12:30:40;98615.78;;;30.89;37.20
13124;BME280;6627;50.920;12.050;2023-07-31T12:33:15;98762.00;;;33.12;34.67
13124;BME280;6627;50.920;12.050;2023-07-31T12:35:45;98640.47;;;31.65;35.79
13124;BME280;6627;50.920;12.050;2023-07-31T12:38:14;98666.75;;;31.26;36.83
13124;BME280;6627;50.920;12.050;2023-07-31T12:40:42;98604.13;;;30.62;37.06
13124;BME280;6627;50.920;12.050;2023-07-31T12:43:10;98719.22;;;32.48;34.90
13124;BME280;6627;50.920;12.050;2023-07-31T12:45:38;98624.09;;;31.64;35.23
13124;BME280;6627;50.920;12.050;2023-07-31T12:48:06;98670.06;;;32.56;34.62
13124;BME280;6627;50.920;12.050;2023-07-31T12:50:35;98686.00;;;32.33;35.16
13124;BME280;6627;50.920;12.050;2023-07-31T12:53:06;98554.66;;;30.75;36.73
13124;BME280;6627;50.920;12.050;2023-07-31T12:55:34;98657.50;;;31.29;36.79
13124;BME280;6627;50.920;12.050;2023-07-31T12:58:03;98613.22;;;31.24;36.54
13124;BME280;6627;50.920;12.050;2023-07-31T13:00:31;98673.47;;;32.51;35.12
13124;BME280;6627;50.920;12.050;2023-07-31T13:02:59;98603.91;;;31.44;35.66
13124;BME280;6627;50.920;12.050;2023-07-31T13:05:28;98660.41;;;31.80;36.43
13124;BME280;6627;50.920;12.050;2023-07-31T13:07:57;98634.31;;;31.29;36.60
13124;BME280;6627;50.920;12.050;2023-07-31T13:10:25;98690.16;;;32.54;35.26